Date,TemperatureHighF,TemperatureAvgF,TemperatureLowF,DewpointHighF,DewpointAvgF,DewpointLowF,HumidityHigh,HumidityAvg,HumidityLow,PressureMaxIn,PressureMinIn,WindSpeedMaxMPH,WindSpeedAvgMPH,GustSpeedMaxMPH,PrecipitationSumIn
2013-1-8,48,35,21,34,29,19,95,80,56,30.38,30.28,6,1,0,0.00
2013-1-9,46,38,25,40,33,23,95,83,66,30.34,30.05,6,2,0,0.01
2013-1-10,47,40,28,27,25,24,89,58,42,30.49,30.19,10,3,0,0.00
2013-1-11,45,37,26,44,34,24,97,89,73,30.45,30.08,2,0,0,0.30
2013-1-12,47,44,42,46,43,41,98,97,95,30.12,30.03,1,0,0,0.11
2013-1-13,48,44,41,48,44,40,98,97,90,30.12,29.97,2,0,0,0.01
2013-1-14,58,50,38,54,44,30,98,81,50,30.22,29.92,10,2,10,0.04
2013-1-22,25,20,14,6,0,-3,49,40,33,30.08,29.87,21,5,29,0.00
2013-1-23,19,14,10,0,-3,-5,60,48,35,30.16,30.07,8,3,25,0.00
2013-1-24,22,14,7,1,-4,-8,66,46,30,30.26,30.09,11,4,28,0.00
2013-1-25,26,19,13,17,3,-3,87,51,28,30.32,30.01,7,2,20,0.00
2013-1-26,26,19,13,15,9,3,90,65,43,30.27,29.97,8,3,20,0.00
2013-1-27,33,23,10,10,4,-2,81,48,26,30.44,30.27,8,2,18,0.00
2013-1-28,35,27,18,34,21,7,96,79,45,30.43,29.95,2,0,9,0.06
2013-1-29,43,36,33,36,34,31,96,90,74,30.15,29.94,3,0,9,0.10
2013-1-30,58,50,37,56,49,36,98,96,89,30.09,29.43,9,3,24,0.01
2013-1-31,59,48,31,57,35,12,96,64,36,29.65,29.01,15,8,42,0.56
2013-2-1,32,29,22,17,11,5,57,47,34,30.11,29.65,9,5,24,0.00
2013-2-2,31,26,18,20,12,8,82,58,45,30.24,30.02,6,2,18,0.00
2013-2-3,33,26,20,20,18,15,91,73,49,30.03,29.71,4,1,10,0.00
2013-2-4,32,27,20,18,12,6,85,55,36,29.92,29.72,9,3,24,0.00
2013-2-5,28,26,25,23,19,8,89,76,48,29.96,29.87,2,0,7,0.00
2013-2-6,39,31,27,26,18,0,90,64,29,30.28,29.86,26,2,26,0.03
2013-2-7,33,27,23,19,9,1,67,46,31,30.48,30.28,16,2,16,0.00
2013-2-8,33,31,25,32,27,16,97,88,61,30.36,29.47,15,1,15,0.01
2013-2-9,26,23,20,24,18,5,95,82,51,30.21,29.53,26,3,26,0.00
2013-2-10,39,24,13,20,10,3,89,57,24,30.40,30.21,14,1,15,0.22
2013-2-11,46,29,18,45,27,15,97,91,85,30.32,29.81,10,0,10,0.80
2013-2-13,41,41,41,25,25,25,54,53,53,29.82,29.82,7,2,12,0.00
2013-3-26,50,44,32,30,25,24,75,49,36,29.77,29.65,6,2,16,0.00